createdAt,value
2018-03-24T00:00:37.466Z,39.93
2018-03-24T00:03:06.571Z,39.83
2018-03-24T00:05:36.445Z,48.10
2018-03-24T00:08:05.551Z,37.67
2018-03-24T00:10:34.657Z,38.53
2018-03-24T00:13:03.754Z,40.87
2018-03-24T00:15:32.930Z,42.20
2018-03-24T00:18:02.826Z,41.67
2018-03-24T00:20:32.695Z,36.27
2018-03-24T00:23:01.777Z,40.27
2018-03-24T00:25:30.900Z,41.67
2018-03-24T00:27:59.998Z,37.63
2018-03-24T00:30:29.137Z,39.70
2018-03-24T00:32:59.012Z,40.07
2018-03-24T00:35:28.127Z,40.10
2018-03-24T00:37:58.196Z,37.88
2018-03-24T00:40:27.295Z,38.90
2018-03-24T00:42:56.406Z,37.07
2018-03-24T00:45:25.497Z,34.60
2018-03-24T00:47:54.607Z,36.80
2018-03-24T00:50:23.714Z,42.63
2018-03-24T00:52:52.838Z,41.33
2018-03-24T00:55:21.919Z,38.33
2018-03-24T00:57:51.802Z,41.67
2018-03-24T01:00:20.898Z,48.33
2018-03-24T01:02:50.783Z,42.17
2018-03-24T01:05:19.890Z,45.20
2018-03-24T01:07:48.990Z,50.70
2018-03-24T01:10:18.096Z,53.43
2018-03-24T01:12:47.969Z,63.37
2018-03-24T01:15:17.101Z,70.17
2018-03-24T01:17:46.184Z,70.22
2018-03-24T01:20:15.300Z,57.97
2018-03-24T01:22:44.412Z,56.73
2018-03-24T01:25:13.519Z,57.67
2018-03-24T01:27:43.405Z,56.10
2018-03-24T01:30:12.482Z,46.93
2018-03-24T01:32:41.613Z,49.40
2018-03-24T01:35:10.695Z,54.25
2018-03-24T01:37:39.798Z,45.63
2018-03-24T01:40:08.908Z,50.67
2018-03-24T01:42:38.009Z,48.10
2018-03-24T01:45:07.106Z,41.83
2018-03-24T01:47:36.979Z,50.10
2018-03-24T01:50:06.095Z,50.50
2018-03-24T01:52:35.186Z,47.53
2018-03-24T01:55:04.291Z,42.53
2018-03-24T01:57:33.385Z,43.37
2018-03-24T02:00:02.511Z,53.55
2018-03-24T02:02:31.625Z,45.10
2018-03-24T02:05:00.709Z,47.00
2018-03-24T02:07:29.810Z,46.93
2018-03-24T02:09:58.919Z,47.87
2018-03-24T02:12:28.066Z,42.10
2018-03-24T02:14:59.065Z,45.82
2018-03-24T02:17:28.189Z,47.80
2018-03-24T02:19:59.029Z,44.38
2018-03-24T02:22:28.141Z,43.50
2018-03-24T02:24:58.595Z,53.08
2018-03-24T02:27:28.449Z,47.07
2018-03-24T02:29:59.084Z,50.05
2018-03-24T02:32:28.970Z,41.77
2018-03-24T02:34:59.115Z,44.78
2018-03-24T02:37:28.213Z,49.37
2018-03-24T02:39:59.051Z,49.50
2018-03-24T02:42:28.143Z,53.90
2018-03-24T02:44:59.087Z,60.50
2018-03-24T02:47:28.196Z,58.33
2018-03-24T02:49:58.292Z,62.24
2018-03-24T02:52:27.394Z,52.60
2018-03-24T02:54:56.494Z,55.83
2018-03-24T02:57:25.637Z,53.90
2018-03-24T02:59:55.487Z,52.70
2018-03-24T03:02:24.596Z,45.27
2018-03-24T03:04:54.471Z,47.13
2018-03-24T03:07:23.589Z,46.27
2018-03-24T03:09:52.714Z,44.67
2018-03-24T03:12:21.814Z,58.80
2018-03-24T03:14:51.678Z,55.43
2018-03-24T03:17:20.792Z,56.23
2018-03-24T03:19:49.887Z,67.53
2018-03-24T03:22:19.012Z,78.87
2018-03-24T03:24:48.137Z,64.53
2018-03-24T03:27:17.322Z,60.58
2018-03-24T03:29:47.945Z,51.47
2018-03-24T03:32:18.904Z,62.60
2018-03-24T03:34:48.024Z,47.50
2018-03-24T03:37:17.894Z,52.87
2018-03-24T03:39:46.995Z,49.70
2018-03-24T03:42:16.098Z,45.70
2018-03-24T03:44:46.730Z,49.33
2018-03-24T03:47:15.831Z,44.83
2018-03-24T03:49:44.935Z,48.57
2018-03-24T03:52:14.050Z,46.53
2018-03-24T03:54:43.910Z,50.47
2018-03-24T03:57:12.985Z,46.93
2018-03-24T03:59:42.106Z,47.27
2018-03-24T04:02:11.220Z,43.67
2018-03-24T04:04:40.338Z,46.72
2018-03-24T04:07:10.211Z,51.17
2018-03-24T04:09:39.315Z,43.50
2018-03-24T04:12:09.180Z,49.83
2018-03-24T04:14:38.297Z,44.10
2018-03-24T04:17:07.386Z,46.83
2018-03-24T04:19:36.494Z,43.93
2018-03-24T04:22:05.602Z,46.20
2018-03-24T04:24:34.681Z,50.37
2018-03-24T04:27:03.788Z,44.40
2018-03-24T04:29:33.652Z,54.10
2018-03-24T04:32:02.757Z,45.95
2018-03-24T04:34:32.624Z,47.17
2018-03-24T04:37:02.499Z,48.03
2018-03-24T04:39:31.589Z,49.30
2018-03-24T04:42:00.726Z,46.30
2018-03-24T04:44:29.822Z,57.00
2018-03-24T04:46:58.930Z,52.67
2018-03-24T04:49:28.025Z,54.53
2018-03-24T04:51:58.387Z,54.40
2018-03-24T04:54:28.248Z,50.53
2018-03-24T04:56:59.204Z,53.82
2018-03-24T04:59:28.301Z,48.33
2018-03-24T05:01:58.396Z,49.03
2018-03-24T05:04:27.495Z,50.67
2018-03-24T05:06:56.582Z,57.43
2018-03-24T05:09:26.473Z,56.10
2018-03-24T05:11:56.337Z,53.33
2018-03-24T05:14:25.423Z,54.00
2018-03-24T05:16:54.526Z,53.27
2018-03-24T05:19:24.427Z,55.50
2018-03-24T05:21:53.561Z,55.33
2018-03-24T05:24:22.669Z,62.57
2018-03-24T05:26:51.779Z,63.43
2018-03-24T05:29:20.875Z,62.90
2018-03-24T05:31:50.756Z,62.70
2018-03-24T05:34:19.867Z,64.73
2018-03-24T05:36:50.477Z,59.30
2018-03-24T05:39:19.576Z,61.70
2018-03-24T05:41:48.696Z,59.13
2018-03-24T05:44:17.770Z,67.50
2018-03-24T05:46:46.882Z,66.50
2018-03-24T05:49:16.766Z,58.30
2018-03-24T05:51:45.869Z,57.90
2018-03-24T05:54:14.985Z,61.73
2018-03-24T05:56:44.098Z,57.47
2018-03-24T05:59:13.983Z,60.50
2018-03-24T06:01:43.082Z,64.10
2018-03-24T06:04:12.205Z,62.37
2018-03-24T06:06:42.075Z,61.90
2018-03-24T06:09:11.203Z,57.30
2018-03-24T06:11:40.324Z,57.40
2018-03-24T06:14:10.234Z,62.73
2018-03-24T06:16:40.083Z,65.20
2018-03-24T06:19:09.190Z,58.50
2018-03-24T06:21:38.298Z,61.10
2018-03-24T06:24:07.387Z,67.63
2018-03-24T06:26:36.492Z,60.83
2018-03-24T06:29:05.604Z,67.07
2018-03-24T06:31:34.984Z,66.43
2018-03-24T06:34:04.093Z,69.35
2018-03-24T06:36:33.182Z,73.73
2018-03-24T06:39:02.315Z,70.03
2018-03-24T06:41:32.180Z,73.00
2018-03-24T06:44:01.382Z,72.83
2018-03-24T06:46:30.480Z,74.57
2018-03-24T06:48:59.598Z,66.22
2018-03-24T06:51:28.699Z,72.53
2018-03-24T06:53:58.577Z,72.22
2018-03-24T06:56:27.721Z,73.00
2018-03-24T06:58:56.802Z,70.13
2018-03-24T07:01:25.903Z,72.90
2018-03-24T07:03:55.785Z,69.23
2018-03-24T07:06:24.888Z,70.03
2018-03-24T07:08:54.009Z,70.60
2018-03-24T07:11:23.115Z,69.97
2018-03-24T07:13:52.955Z,74.17
2018-03-24T07:16:22.074Z,82.13
2018-03-24T07:18:51.171Z,70.37
2018-03-24T07:21:20.326Z,76.47
2018-03-24T07:23:49.399Z,72.07
2018-03-24T07:26:18.513Z,64.37
2018-03-24T07:28:47.607Z,66.93
2018-03-24T07:31:17.490Z,74.63
2018-03-24T07:33:47.382Z,54.17
2018-03-24T07:36:16.496Z,56.83
2018-03-24T07:38:46.393Z,58.60
2018-03-24T07:41:15.494Z,72.73
2018-03-24T07:43:44.593Z,57.50
2018-03-24T07:46:14.488Z,67.00
2018-03-24T07:48:43.618Z,62.40
2018-03-24T07:51:12.722Z,73.43
2018-03-24T07:53:41.866Z,60.27
2018-03-24T07:56:11.718Z,64.18
2018-03-24T07:58:40.843Z,64.23
2018-03-24T08:01:09.984Z,60.60
2018-03-24T08:03:39.131Z,59.20
2018-03-24T08:06:08.212Z,68.12
2018-03-24T08:08:37.368Z,64.80
2018-03-24T08:11:06.453Z,75.83
2018-03-24T08:13:35.600Z,65.75
2018-03-24T08:16:04.684Z,67.40
2018-03-24T08:18:34.547Z,69.13
2018-03-24T08:21:03.649Z,70.73
2018-03-24T08:23:33.512Z,61.10
2018-03-24T08:26:02.640Z,60.37
2018-03-24T08:28:31.734Z,60.20
2018-03-24T08:31:01.642Z,62.30
2018-03-24T08:33:30.778Z,57.73
2018-03-24T08:35:59.929Z,60.50
2018-03-24T08:38:29.027Z,60.37
2018-03-24T08:40:59.482Z,55.20
2018-03-24T08:43:29.539Z,68.30
2018-03-24T08:45:59.494Z,62.45
2018-03-24T08:48:28.606Z,62.37
2018-03-24T08:50:58.766Z,65.15
2018-03-24T08:53:27.876Z,61.00
2018-03-24T08:55:57.007Z,54.07
2018-03-24T08:58:26.121Z,56.00
2018-03-24T09:00:56.003Z,65.70
2018-03-24T09:03:25.170Z,50.50
2018-03-24T09:05:55.005Z,55.03
2018-03-24T09:08:24.899Z,63.40
2018-03-24T09:10:53.991Z,55.37
2018-03-24T09:13:23.108Z,59.70
2018-03-24T09:15:52.235Z,52.60
2018-03-24T09:18:22.310Z,57.77
2018-03-24T09:20:51.438Z,52.37
2018-03-24T09:23:20.550Z,57.03
2018-03-24T09:25:49.664Z,55.37
2018-03-24T09:28:18.781Z,54.40
2018-03-24T09:30:47.895Z,52.13
2018-03-24T09:33:17.044Z,54.97
2018-03-24T09:35:47.823Z,52.57
2018-03-24T09:38:16.976Z,50.33
2018-03-24T09:40:46.824Z,48.77
2018-03-24T09:43:15.977Z,49.13
2018-03-24T09:45:45.097Z,51.93
2018-03-24T09:48:14.201Z,51.83
2018-03-24T09:50:43.308Z,44.07
2018-03-24T09:53:12.430Z,45.12
2018-03-24T09:55:41.542Z,43.73
2018-03-24T09:58:10.674Z,41.92
2018-03-24T10:00:39.805Z,42.40
2018-03-24T10:03:08.973Z,42.83
2018-03-24T10:05:38.876Z,42.97
2018-03-24T10:08:08.756Z,37.58
2018-03-24T10:10:38.185Z,37.87
2018-03-24T10:13:08.218Z,40.27
2018-03-24T10:15:37.335Z,46.10
2018-03-24T10:18:06.439Z,33.53
2018-03-24T10:34:30.053Z,33.90
2018-03-24T10:36:59.175Z,38.70
2018-03-24T10:39:28.286Z,34.60
2018-03-24T10:41:57.444Z,36.53
2018-03-24T10:44:26.517Z,38.97
2018-03-24T10:46:55.633Z,34.40
2018-03-24T10:49:24.743Z,33.33
2018-03-24T10:51:54.615Z,40.07
2018-03-24T10:54:23.752Z,46.30
2018-03-24T10:56:52.853Z,50.90
2018-03-24T10:59:22.735Z,42.73
2018-03-24T11:01:51.866Z,36.23
2018-03-24T11:04:21.760Z,37.80
2018-03-24T11:06:50.843Z,34.10
2018-03-24T11:09:19.977Z,36.90
2018-03-24T11:11:49.835Z,40.30
2018-03-24T11:14:18.942Z,39.30
2018-03-24T11:16:49.558Z,35.60
2018-03-24T11:19:18.704Z,36.80
2018-03-24T11:21:47.786Z,40.53
2018-03-24T11:24:17.683Z,33.67
2018-03-24T11:26:46.837Z,30.87
2018-03-24T11:29:15.916Z,35.03
2018-03-24T11:31:45.054Z,34.60
2018-03-24T11:34:14.145Z,37.47
2018-03-24T11:36:44.052Z,23.63
2018-03-24T11:39:13.187Z,24.00
2018-03-24T11:41:42.287Z,25.30
2018-03-24T11:44:11.383Z,30.10
2018-03-24T11:46:40.497Z,30.80
2018-03-24T11:49:09.608Z,26.20
2018-03-24T11:51:39.466Z,25.17
2018-03-24T11:54:08.591Z,30.47
2018-03-24T11:56:38.537Z,27.50
2018-03-24T11:59:08.386Z,29.77
2018-03-24T12:01:38.269Z,29.57
2018-03-24T12:04:07.396Z,28.53
2018-03-24T12:06:36.550Z,24.97
2018-03-24T12:09:05.660Z,27.57
2018-03-24T12:11:34.791Z,35.53
2018-03-24T12:14:03.915Z,27.10
2018-03-24T12:16:33.054Z,32.07
2018-03-24T12:19:02.229Z,27.90
2018-03-24T12:21:32.119Z,31.33
2018-03-24T12:24:01.754Z,33.40
2018-03-24T12:26:31.644Z,33.67
2018-03-24T12:29:00.751Z,33.73
2018-03-24T12:31:30.614Z,29.03
2018-03-24T12:33:59.756Z,28.47
2018-03-24T12:36:28.866Z,30.17
2018-03-24T12:38:58.755Z,28.10
2018-03-24T12:41:27.870Z,29.20
2018-03-24T12:43:57.011Z,28.30
2018-03-24T12:46:26.115Z,32.17
2018-03-24T12:48:55.217Z,30.43
2018-03-24T12:51:24.390Z,26.70
2018-03-24T12:53:53.472Z,25.50
2018-03-24T12:56:22.604Z,26.67
2018-03-24T12:58:51.706Z,34.20
2018-03-24T13:01:20.829Z,25.47
2018-03-24T13:03:49.948Z,28.20
2018-03-24T13:06:19.838Z,24.40
2018-03-24T13:08:48.939Z,25.53
2018-03-24T13:11:18.850Z,30.20
2018-03-24T13:13:47.986Z,21.80
2018-03-24T13:16:17.095Z,28.70
2018-03-24T13:18:46.223Z,31.00
2018-03-24T13:21:15.334Z,20.20
2018-03-24T13:23:45.964Z,22.00
2018-03-24T13:26:15.092Z,21.63
2018-03-24T13:28:44.234Z,20.23
2018-03-24T13:31:13.341Z,20.13
2018-03-24T13:33:42.474Z,22.93
2018-03-24T13:36:12.338Z,23.30
2018-03-24T13:38:41.463Z,22.13
2018-03-24T13:41:11.559Z,20.00
2018-03-24T13:43:40.691Z,18.27
2018-03-24T13:46:09.784Z,23.60
2018-03-24T13:48:38.889Z,20.23
2018-03-24T13:51:08.772Z,19.07
2018-03-24T13:53:37.891Z,18.23
2018-03-24T13:56:07.030Z,20.83
2018-03-24T13:58:36.137Z,17.37
2018-03-24T14:01:05.292Z,22.23
2018-03-24T14:03:35.182Z,24.70
2018-03-24T14:06:04.333Z,20.07
2018-03-24T14:08:33.450Z,18.60
2018-03-24T14:11:03.168Z,23.53
2018-03-24T14:13:32.305Z,16.97
2018-03-24T14:16:02.216Z,16.80
2018-03-24T14:18:31.342Z,15.90
2018-03-24T14:21:00.475Z,32.53
2018-03-24T14:23:30.375Z,17.00
2018-03-24T14:25:59.510Z,19.97
2018-03-24T14:28:28.691Z,20.70
2018-03-24T14:30:58.583Z,16.60
2018-03-24T14:33:27.731Z,16.60
2018-03-24T14:35:58.421Z,17.60
2018-03-24T14:38:27.550Z,16.23
2018-03-24T14:40:56.647Z,15.97
2018-03-24T14:43:26.554Z,16.17
2018-03-24T14:45:56.472Z,17.20
2018-03-24T14:48:25.603Z,15.67
2018-03-24T14:50:56.713Z,13.63
2018-03-24T14:53:25.856Z,14.20
2018-03-24T14:55:54.949Z,15.80
2018-03-24T14:58:24.061Z,17.27
2018-03-24T15:00:53.171Z,21.83
2018-03-24T15:03:22.292Z,20.00
2018-03-24T15:05:51.415Z,17.73
2018-03-24T15:08:21.275Z,17.10
2018-03-24T15:10:50.429Z,18.83
2018-03-24T15:13:20.354Z,16.20
2018-03-24T15:15:49.454Z,16.90
2018-03-24T15:18:18.559Z,18.00
2018-03-24T15:20:47.678Z,14.30
2018-03-24T15:23:16.814Z,17.90
2018-03-24T15:25:45.954Z,19.03
2018-03-24T15:28:15.086Z,20.10
2018-03-24T15:31:01.828Z,17.20
2018-03-24T15:33:49.355Z,19.73
2018-03-24T15:36:37.080Z,17.27
2018-03-24T15:39:06.196Z,19.33
2018-03-24T15:41:35.336Z,27.73
2018-03-24T15:44:04.478Z,20.83
2018-03-24T15:46:34.408Z,19.30
2018-03-24T15:49:04.323Z,26.70
2018-03-24T15:51:34.510Z,15.83
2018-03-24T15:54:03.619Z,19.47
2018-03-24T15:56:33.489Z,16.17
2018-03-24T15:59:02.618Z,17.33
2018-03-24T16:01:31.754Z,18.47
2018-03-24T16:04:00.925Z,15.07
2018-03-24T16:06:30.818Z,17.63
2018-03-24T16:08:59.918Z,16.60
2018-03-24T16:11:29.049Z,15.00
2018-03-24T16:13:58.194Z,16.70
2018-03-24T16:16:27.324Z,18.07
2018-03-24T16:18:56.430Z,17.77
2018-03-24T16:21:26.326Z,18.67
2018-03-24T16:23:55.423Z,23.20
2018-03-24T16:26:25.306Z,17.90
2018-03-24T16:28:54.426Z,17.90
2018-03-24T16:31:23.546Z,16.70
2018-03-24T16:33:53.431Z,21.67
2018-03-24T16:36:22.555Z,17.33
2018-03-24T16:38:52.442Z,18.83
2018-03-24T16:41:21.541Z,17.03
2018-03-24T16:43:50.658Z,16.50
2018-03-24T16:46:20.525Z,17.13
2018-03-24T16:48:49.659Z,16.50
2018-03-24T16:51:19.712Z,17.40
2018-03-24T16:53:49.652Z,17.63
2018-03-24T16:56:19.707Z,19.80
2018-03-24T16:58:48.835Z,17.93
2018-03-24T17:01:17.952Z,17.83
2018-03-24T17:03:47.070Z,19.93
2018-03-24T17:06:16.198Z,21.70
2018-03-24T17:08:45.338Z,20.00
2018-03-24T17:11:14.486Z,21.70
2018-03-24T17:13:43.605Z,22.23
2018-03-24T17:16:13.456Z,20.30
2018-03-24T17:18:42.581Z,20.07
2018-03-24T17:21:11.690Z,20.57
2018-03-24T17:23:40.793Z,20.60
2018-03-24T17:26:10.690Z,20.00
2018-03-24T17:28:39.814Z,19.57
2018-03-24T17:31:09.696Z,20.87
2018-03-24T17:33:38.837Z,19.10
2018-03-24T17:36:07.996Z,19.00
2018-03-24T17:38:37.118Z,22.33
2018-03-24T17:41:07.020Z,21.13
2018-03-24T17:43:36.895Z,18.17
2018-03-24T17:46:06.026Z,20.80
2018-03-24T17:48:35.155Z,19.00
2018-03-24T17:51:04.323Z,20.70
2018-03-24T17:53:36.445Z,27.17
2018-03-24T17:56:06.160Z,25.00
2018-03-24T17:58:35.257Z,27.00
2018-03-24T18:01:04.456Z,24.33
2018-03-24T18:03:33.573Z,21.17
2018-03-24T18:06:02.665Z,20.60
2018-03-24T18:08:33.334Z,23.07
2018-03-24T18:11:03.205Z,27.90
2018-03-24T18:13:32.302Z,27.87
2018-03-24T18:16:02.212Z,27.17
2018-03-24T18:18:31.300Z,28.73
2018-03-24T18:21:00.427Z,26.73
2018-03-24T18:23:29.530Z,28.57
2018-03-24T18:25:59.451Z,26.20
2018-03-24T18:28:29.317Z,28.57
2018-03-24T18:30:58.441Z,23.97
2018-03-24T18:33:27.548Z,24.83
2018-03-24T18:35:56.692Z,29.47
2018-03-24T18:38:25.761Z,28.50
2018-03-24T18:40:55.672Z,29.60
2018-03-24T18:43:25.540Z,37.07
2018-03-24T18:45:54.655Z,32.33
2018-03-24T18:48:23.786Z,28.40
2018-03-24T18:50:53.633Z,27.20
2018-03-24T18:53:22.742Z,27.87
2018-03-24T18:55:51.897Z,25.07
2018-03-24T18:58:21.035Z,29.70
2018-03-24T19:00:50.901Z,24.53
2018-03-24T19:03:20.816Z,25.93
2018-03-24T19:05:50.714Z,25.03
2018-03-24T19:08:19.886Z,23.47
2018-03-24T19:10:49.788Z,22.57
2018-03-24T19:13:18.931Z,22.90
2018-03-24T19:15:48.026Z,29.23
2018-03-24T19:18:17.894Z,25.10
2018-03-24T19:20:47.041Z,25.37
2018-03-24T19:23:16.155Z,25.20
2018-03-24T19:25:45.304Z,26.30
2018-03-24T19:28:14.432Z,23.97
2018-03-24T19:30:44.306Z,23.47
2018-03-24T19:33:13.443Z,27.23
2018-03-24T19:35:43.295Z,22.83
2018-03-24T19:38:12.438Z,26.07
2018-03-24T19:40:41.554Z,27.73
2018-03-24T19:43:11.457Z,30.87
2018-03-24T19:45:40.548Z,28.20
2018-03-24T19:48:09.667Z,29.87
2018-03-24T19:50:39.506Z,25.30
2018-03-24T19:53:08.640Z,31.70
2018-03-24T19:55:38.563Z,28.43
2018-03-24T19:58:07.706Z,30.40
2018-03-24T20:00:36.846Z,36.63
2018-03-24T20:03:06.739Z,31.17
2018-03-24T20:05:35.850Z,30.63
2018-03-24T20:08:05.013Z,34.13
2018-03-24T20:10:34.178Z,35.07
2018-03-24T20:13:04.055Z,32.10
2018-03-24T20:15:33.207Z,37.57
2018-03-24T20:18:03.089Z,33.17
2018-03-24T20:20:32.233Z,32.93
2018-03-24T20:23:01.329Z,33.10
2018-03-24T20:25:30.435Z,30.03
2018-03-24T20:28:00.744Z,30.40
2018-03-24T20:30:29.837Z,32.07
2018-03-24T20:32:58.985Z,34.33
2018-03-24T20:35:28.177Z,29.07
2018-03-24T20:37:57.301Z,36.30
2018-03-24T20:40:27.181Z,31.13
2018-03-24T20:42:56.336Z,33.63
2018-03-24T20:45:26.676Z,38.30
2018-03-24T20:47:55.769Z,38.20
2018-03-24T20:50:24.870Z,33.07
2018-03-24T20:52:54.057Z,33.90
2018-03-24T20:55:23.143Z,38.20
2018-03-24T20:57:53.061Z,38.57
2018-03-24T21:00:22.221Z,36.53
2018-03-24T21:02:51.344Z,36.73
2018-03-24T21:05:21.216Z,35.80
2018-03-24T21:07:50.375Z,36.30
2018-03-24T21:10:19.451Z,40.10
2018-03-24T21:12:49.330Z,36.33
2018-03-24T21:15:18.423Z,34.73
2018-03-24T21:17:48.304Z,35.53
2018-03-24T21:20:17.471Z,41.73
2018-03-24T21:22:46.602Z,38.33
2018-03-24T21:25:15.731Z,41.37
2018-03-24T21:27:44.843Z,46.93
2018-03-24T21:30:13.972Z,39.60
2018-03-24T21:32:44.589Z,45.63
2018-03-24T21:35:14.495Z,41.40
2018-03-24T21:40:18.910Z,48.37
2018-03-24T21:42:48.090Z,43.77
2018-03-24T21:45:17.213Z,44.87
2018-03-24T21:47:46.413Z,44.57
2018-03-24T21:50:15.575Z,54.73
2018-03-24T21:52:44.701Z,44.77
2018-03-24T21:55:13.820Z,41.73
2018-03-24T21:57:43.705Z,39.30
2018-03-24T22:00:12.874Z,38.77
2018-03-24T22:02:42.737Z,37.93
2018-03-24T22:05:11.890Z,42.47
2018-03-24T22:07:41.006Z,36.87
2018-03-24T22:10:10.174Z,42.10
2018-03-24T22:12:39.356Z,40.13
2018-03-24T22:15:09.259Z,34.20
2018-03-24T22:17:39.118Z,36.20
2018-03-24T22:20:09.031Z,40.90
2018-03-24T22:22:38.177Z,39.07
2018-03-24T22:25:08.091Z,35.43
2018-03-24T22:27:38.058Z,38.50
2018-03-24T22:42:53.861Z,37.60
2018-03-24T22:45:22.999Z,45.20
2018-03-24T22:47:52.101Z,42.43
2018-03-24T22:50:21.224Z,44.03
2018-03-24T22:52:50.351Z,42.47
2018-03-24T22:55:19.495Z,41.53
2018-03-24T22:57:48.618Z,40.60
2018-03-24T23:00:17.773Z,41.47
2018-03-24T23:02:47.636Z,44.87
2018-03-24T23:05:17.525Z,39.37
2018-03-24T23:07:46.650Z,43.70
2018-03-24T23:10:15.809Z,37.60
2018-03-24T23:12:44.954Z,39.90
2018-03-24T23:15:14.061Z,37.27
2018-03-24T23:17:43.968Z,40.80
2018-03-24T23:20:13.826Z,38.50
2018-03-24T23:22:43.019Z,41.00
2018-03-24T23:25:12.134Z,39.97
2018-03-24T23:27:41.278Z,43.47
2018-03-24T23:30:10.408Z,39.07
2018-03-24T23:32:39.530Z,46.63
2018-03-24T23:35:08.671Z,43.50
2018-03-24T23:37:37.814Z,37.57
2018-03-24T23:40:06.958Z,44.17
2018-03-24T23:42:36.054Z,40.57
2018-03-24T23:45:05.179Z,40.17
2018-03-24T23:47:34.286Z,38.93
2018-03-24T23:50:03.414Z,36.37
2018-03-24T23:52:32.532Z,35.53
2018-03-24T23:55:01.702Z,35.33
2018-03-24T23:57:30.821Z,49.17
2018-03-24T23:59:59.946Z,41.63
